Relevés horaires Florennes (Belgique)


Relevés horaires à Florennes - Samedi 01 Août 2020
Heure UTC1 Température [°C] Vent [km/h] Hum. [%] Pres.4 [hPa] Visi. [Km] Nébu. [octa] Préc.5 [mm] Cond.
2m. Res. Ros. Dir.2 Vit. Moy. Raf.3
23:00 18.8 18.8 12.4 NNO 1.9 -- 5.6 66 1016.6(0.7/3h) 20 -- -- --
22:00 19.5 19.5 12.1 NO 3.7 -- 11.1 62 1016.3(1.0/3h) 20 -- -- --
21:00 20.7 20.7 12.2 NO 5.6 -- 14.8 58 1016(1.0/3h) 20 -- -- --
20:00 21.7 21.7 12.3 ONO 7.4 -- 14.8 55 1015.5(0.7/3h) 20 -- -- --
19:00 23.3 23.3 13.1 ONO 5.6 -- 13.0 53 1014.7(0.1/3h) 20 -- -- --
18:00 24.0 24.0 14.7 ONO 7.4 -- 14.8 56 1014.5(-0.1/3h) 20 -- -- --
17:00 25.5 25.5 15.6 ONO 7.4 -- 13.0 54 1014.2(-0.3/3h) 19 -- -- --
16:00 26.8 26.8 14.4 O 5.6 -- 13.0 47 1014.2(-0.5/3h) 20 -- -- --
15:00 26.9 26.9 15.5 O 7.4 -- 14.8 50 1014.2(-0.5/3h) 17 -- -- --
14:00 26.4 26.4 16.2 O 7.4 -- 13.0 54 1014.5(-0.7/3h) 19 -- -- --
13:00 26.3 26.3 16.5 ONO 5.6 -- 13.0 55 1014.8(-0.5/3h) 20 -- -- --
12:00 24.8 24.8 17.0 O 7.4 -- 14.8 62 1015.1(-0.2/3h) 20 -- -- --
11:00 24.1 24.1 17.4 O 5.6 -- 14.8 66 1015.6(0.2/3h) 19 -- -- --
10:00 23.5 23.5 17.3 ONO 5.6 -- 11.1 68 1015.7(1.3/3h) 20 -- -- --
09:00 22.7 22.7 17.5 O 3.7 -- 13.0 72 1015.6(1.6/3h) 20 -- -- --
08:00 21.5 21.5 16.9 NNO 1.9 -- 11.1 75 1015.6(1.7/3h) 20 -- -- --
07:00 19.6 19.6 16.5 O 7.4 -- 13.0 82 1014.7(1.0/3h) 20 -- -- --
06:00 18.7 18.7 15.3 O 9.3 -- 14.8 81 1014.3(0.0/3h) 20 -- trace/12h
NA
05:00 19.3 19.3 14.9 O 5.6 -- 7.4 76 1014(-0.9/3h) 20 -- -- --
04:00 20.3 20.3 15.6 O 5.6 -- 11.1 74 1013.7(-0.3/3h) 20 -- -- --
03:00 21.3 21.3 15.7 O 9.3 -- 13.0 70 1014(0.2/3h) 20 -- -- NA
02:00 22.6 22.6 15.7 SO 5.6 -- 11.1 65 1014.6(1.3/3h) 20 -- -- --
01:00 22.8 22.8 16.3 O 3.7 -- 13.0 67 1013.7(0.6/3h) 20 -- -- NA
00:00 23.4 23.4 16.5 O 5.6 -- 14.8 65 1013.6(0.8/3h) 15 -- trace/6h
NA

1 Coordinated Universal Time. Actuellement il est 03:00 locale et 01:00 UTC.

2 Le vent souffle depuis la direction indiquée vers la direction oposée.

3 Les rafales max. sont disponible 40 min après l'heure du relevé.

4 Pour les stations d'altitude (plus de 600m) le géopotentiel du niveau le plus proche de la pression obligatoire est indiqué.

5 Les stations disposant d'un diffuseur peuvent indiquer "trace". Cela signifie que des précipitations ont touchés le sol mais que la quantité est inférieure à 0.1 mm.

Récapitulatif de la journée
Température [°C] Vent [km/h] Ensoleillement4 [h] Precipitations totale5 [mm] Pression [Hpa]
Min1 Max.2 Moy.3 Max. Min Max.
18.6 27.5 0 14.8 0 h 0 min 0 1013.6 1016.6

1 Température minimale relevée entre 18:00 UTC la veille et 18:00 UTC le jour donné.

2 Température maximale relevée entre 06:00 UTC le jour donné et 06:00 UTC le lendemain.

3 Vent moyen de la journée basé sur les relevés horaires.

4 Ensoleillement en heures relevé entre 06:00 UTC la veille et 06:00 UTC le jour donné.

5 Précipitations totales tombées entre 06:00 UTC la jour donné et 06:00 UTC le lendemain.

Graphiques horaires